sensor_id;sensor_type;location;lat;lon;timestamp;pressure;altitude;pressure_sealevel;temperature
13219;BMP180;6674;49.152;11.918;2023-07-24T00:00:15;95488.66;;;21.36
13219;BMP180;6674;49.152;11.918;2023-07-24T00:02:43;95478.78;;;21.47
13219;BMP180;6674;49.152;11.918;2023-07-24T00:05:10;95470.22;;;21.55
13219;BMP180;6674;49.152;11.918;2023-07-24T00:07:37;95458.81;;;21.59
13219;BMP180;6674;49.152;11.918;2023-07-24T00:10:04;95459.81;;;21.63
13219;BMP180;6674;49.152;11.918;2023-07-24T00:12:31;95451.16;;;21.63
13219;BMP180;6674;49.152;11.918;2023-07-24T00:14:58;95450.97;;;21.59
13219;BMP180;6674;49.152;11.918;2023-07-24T00:17:24;95448.34;;;21.59
13219;BMP180;6674;49.152;11.918;2023-07-24T00:19:53;95441.06;;;21.56
13219;BMP180;6674;49.152;11.918;2023-07-24T00:22:19;95441.84;;;21.57
13219;BMP180;6674;49.152;11.918;2023-07-24T00:24:46;95437.94;;;21.54
13219;BMP180;6674;49.152;11.918;2023-07-24T00:27:13;95436.41;;;21.53
13219;BMP180;6674;49.152;11.918;2023-07-24T00:29:40;95428.66;;;21.48
13219;BMP180;6674;49.152;11.918;2023-07-24T00:32:07;95434.94;;;21.47
13219;BMP180;6674;49.152;11.918;2023-07-24T00:34:34;95441.44;;;21.36
13219;BMP180;6674;49.152;11.918;2023-07-24T00:37:02;95439.59;;;21.23
13219;BMP180;6674;49.152;11.918;2023-07-24T00:39:29;95444.00;;;21.15
13219;BMP180;6674;49.152;11.918;2023-07-24T00:41:55;95443.22;;;21.14
13219;BMP180;6674;49.152;11.918;2023-07-24T00:44:22;95446.94;;;21.00
13219;BMP180;6674;49.152;11.918;2023-07-24T00:46:49;95457.31;;;20.91
13219;BMP180;6674;49.152;11.918;2023-07-24T00:49:16;95471.00;;;20.88
13219;BMP180;6674;49.152;11.918;2023-07-24T00:51:43;95469.63;;;20.77
13219;BMP180;6674;49.152;11.918;2023-07-24T00:54:15;95476.13;;;20.48
13219;BMP180;6674;49.152;11.918;2023-07-24T00:56:43;95502.88;;;20.32
13219;BMP180;6674;49.152;11.918;2023-07-24T00:59:11;95531.84;;;20.04
13219;BMP180;6674;49.152;11.918;2023-07-24T01:01:39;95548.75;;;20.11
13219;BMP180;6674;49.152;11.918;2023-07-24T01:04:08;95532.00;;;19.94
13219;BMP180;6674;49.152;11.918;2023-07-24T01:06:35;95528.53;;;20.17
13219;BMP180;6674;49.152;11.918;2023-07-24T01:09:02;95518.38;;;19.92
13219;BMP180;6674;49.152;11.918;2023-07-24T01:11:34;95511.72;;;19.81
13219;BMP180;6674;49.152;11.918;2023-07-24T01:14:07;95503.69;;;19.96
13219;BMP180;6674;49.152;11.918;2023-07-24T01:16:37;95497.75;;;20.09
13219;BMP180;6674;49.152;11.918;2023-07-24T01:19:12;95493.31;;;20.23
13219;BMP180;6674;49.152;11.918;2023-07-24T01:22:01;95509.88;;;20.36
13219;BMP180;6674;49.152;11.918;2023-07-24T01:24:33;95509.69;;;20.33
13219;BMP180;6674;49.152;11.918;2023-07-24T01:27:03;95503.09;;;20.49
13219;BMP180;6674;49.152;11.918;2023-07-24T01:29:30;95526.06;;;20.38
13219;BMP180;6674;49.152;11.918;2023-07-24T01:31:57;95515.16;;;20.50
13219;BMP180;6674;49.152;11.918;2023-07-24T01:34:23;95497.38;;;20.47
13219;BMP180;6674;49.152;11.918;2023-07-24T01:36:50;95483.31;;;20.43
13219;BMP180;6674;49.152;11.918;2023-07-24T01:39:18;95492.22;;;20.42
13219;BMP180;6674;49.152;11.918;2023-07-24T01:41:46;95481.34;;;20.35
13219;BMP180;6674;49.152;11.918;2023-07-24T01:44:14;95470.63;;;20.00
13219;BMP180;6674;49.152;11.918;2023-07-24T01:46:40;95458.75;;;20.07
13219;BMP180;6674;49.152;11.918;2023-07-24T01:49:07;95440.78;;;20.33
13219;BMP180;6674;49.152;11.918;2023-07-24T01:51:34;95432.81;;;20.37
13219;BMP180;6674;49.152;11.918;2023-07-24T01:54:00;95422.34;;;20.37
13219;BMP180;6674;49.152;11.918;2023-07-24T01:56:27;95438.13;;;20.19
13219;BMP180;6674;49.152;11.918;2023-07-24T01:58:53;95466.53;;;20.12
13219;BMP180;6674;49.152;11.918;2023-07-24T02:01:22;95487.50;;;20.26
13219;BMP180;6674;49.152;11.918;2023-07-24T02:03:48;95487.91;;;20.33
13219;BMP180;6674;49.152;11.918;2023-07-24T02:06:15;95475.72;;;20.28
13219;BMP180;6674;49.152;11.918;2023-07-24T02:08:41;95464.94;;;20.30
13219;BMP180;6674;49.152;11.918;2023-07-24T02:11:14;95463.38;;;20.29
13219;BMP180;6674;49.152;11.918;2023-07-24T02:13:40;95426.25;;;20.40
13219;BMP180;6674;49.152;11.918;2023-07-24T02:16:07;95424.88;;;20.42
13219;BMP180;6674;49.152;11.918;2023-07-24T02:18:35;95418.69;;;20.52
13219;BMP180;6674;49.152;11.918;2023-07-24T02:21:02;95414.66;;;20.59
13219;BMP180;6674;49.152;11.918;2023-07-24T02:23:28;95425.31;;;20.63
13219;BMP180;6674;49.152;11.918;2023-07-24T02:25:55;95424.50;;;20.67
13219;BMP180;6674;49.152;11.918;2023-07-24T02:28:22;95420.31;;;20.66
13219;BMP180;6674;49.152;11.918;2023-07-24T02:30:48;95423.59;;;20.72
13219;BMP180;6674;49.152;11.918;2023-07-24T02:33:16;95427.00;;;20.72
13219;BMP180;6674;49.152;11.918;2023-07-24T02:35:44;95412.81;;;20.73
13219;BMP180;6674;49.152;11.918;2023-07-24T02:38:11;95415.53;;;20.68
13219;BMP180;6674;49.152;11.918;2023-07-24T02:40:40;95414.56;;;20.64
13219;BMP180;6674;49.152;11.918;2023-07-24T02:43:07;95403.97;;;20.56
13219;BMP180;6674;49.152;11.918;2023-07-24T02:45:34;95389.31;;;20.55
13219;BMP180;6674;49.152;11.918;2023-07-24T02:48:01;95379.69;;;20.50
13219;BMP180;6674;49.152;11.918;2023-07-24T02:50:28;95379.38;;;20.38
13219;BMP180;6674;49.152;11.918;2023-07-24T02:52:56;95373.75;;;20.32
13219;BMP180;6674;49.152;11.918;2023-07-24T02:55:23;95365.66;;;20.15
13219;BMP180;6674;49.152;11.918;2023-07-24T02:57:49;95375.00;;;20.21
13219;BMP180;6674;49.152;11.918;2023-07-24T03:00:16;95368.19;;;20.20
13219;BMP180;6674;49.152;11.918;2023-07-24T03:02:43;95362.19;;;20.19
13219;BMP180;6674;49.152;11.918;2023-07-24T03:05:10;95362.38;;;20.23
13219;BMP180;6674;49.152;11.918;2023-07-24T03:07:36;95355.59;;;20.22
13219;BMP180;6674;49.152;11.918;2023-07-24T03:10:05;95352.47;;;20.20
13219;BMP180;6674;49.152;11.918;2023-07-24T03:12:33;95348.78;;;20.07
13219;BMP180;6674;49.152;11.918;2023-07-24T03:14:59;95351.78;;;20.01
13219;BMP180;6674;49.152;11.918;2023-07-24T03:17:26;95349.44;;;19.99
13219;BMP180;6674;49.152;11.918;2023-07-24T03:19:54;95353.56;;;19.87
13219;BMP180;6674;49.152;11.918;2023-07-24T03:22:21;95352.53;;;19.70
13219;BMP180;6674;49.152;11.918;2023-07-24T03:24:47;95356.00;;;19.65
13219;BMP180;6674;49.152;11.918;2023-07-24T03:27:15;95353.81;;;19.54
13219;BMP180;6674;49.152;11.918;2023-07-24T03:29:42;95363.16;;;19.42
13219;BMP180;6674;49.152;11.918;2023-07-24T03:32:08;95369.00;;;19.34
13219;BMP180;6674;49.152;11.918;2023-07-24T03:34:35;95369.59;;;19.31
13219;BMP180;6674;49.152;11.918;2023-07-24T03:37:02;95371.28;;;19.22
13219;BMP180;6674;49.152;11.918;2023-07-24T03:39:29;95374.25;;;19.15
13219;BMP180;6674;49.152;11.918;2023-07-24T03:41:55;95369.84;;;19.11
13219;BMP180;6674;49.152;11.918;2023-07-24T03:44:23;95374.09;;;19.07
13219;BMP180;6674;49.152;11.918;2023-07-24T03:46:50;95380.66;;;19.04
13219;BMP180;6674;49.152;11.918;2023-07-24T03:49:16;95388.50;;;18.81
13219;BMP180;6674;49.152;11.918;2023-07-24T03:51:43;95412.91;;;18.72
13219;BMP180;6674;49.152;11.918;2023-07-24T03:54:10;95428.91;;;18.65
13219;BMP180;6674;49.152;11.918;2023-07-24T03:56:36;95412.06;;;18.53
13219;BMP180;6674;49.152;11.918;2023-07-24T03:59:03;95410.25;;;18.54
13219;BMP180;6674;49.152;11.918;2023-07-24T04:01:31;95410.25;;;18.54
13219;BMP180;6674;49.152;11.918;2023-07-24T04:03:58;95413.44;;;18.46
13219;BMP180;6674;49.152;11.918;2023-07-24T04:06:25;95393.69;;;18.40
13219;BMP180;6674;49.152;11.918;2023-07-24T04:08:52;95383.69;;;18.47
13219;BMP180;6674;49.152;11.918;2023-07-24T04:11:18;95381.56;;;18.49
13219;BMP180;6674;49.152;11.918;2023-07-24T04:13:45;95362.13;;;18.59
13219;BMP180;6674;49.152;11.918;2023-07-24T04:16:11;95341.38;;;18.68
13219;BMP180;6674;49.152;11.918;2023-07-24T04:18:39;95290.41;;;18.70
13219;BMP180;6674;49.152;11.918;2023-07-24T04:21:06;95276.34;;;18.66
13219;BMP180;6674;49.152;11.918;2023-07-24T04:23:33;95283.44;;;18.66
13219;BMP180;6674;49.152;11.918;2023-07-24T04:25:59;95285.16;;;18.70
13219;BMP180;6674;49.152;11.918;2023-07-24T04:28:26;95290.16;;;18.90
13219;BMP180;6674;49.152;11.918;2023-07-24T04:30:52;95307.47;;;19.04
13219;BMP180;6674;49.152;11.918;2023-07-24T04:33:19;95313.34;;;19.15
13219;BMP180;6674;49.152;11.918;2023-07-24T04:35:48;95326.28;;;19.25
13219;BMP180;6674;49.152;11.918;2023-07-24T04:38:15;95327.19;;;19.34
13219;BMP180;6674;49.152;11.918;2023-07-24T04:40:43;95328.19;;;19.38
13219;BMP180;6674;49.152;11.918;2023-07-24T04:43:10;95315.59;;;19.40
13219;BMP180;6674;49.152;11.918;2023-07-24T04:45:37;95297.69;;;19.46
13219;BMP180;6674;49.152;11.918;2023-07-24T04:48:04;95306.75;;;19.54
13219;BMP180;6674;49.152;11.918;2023-07-24T04:50:31;95296.47;;;19.57
13219;BMP180;6674;49.152;11.918;2023-07-24T04:53:00;95288.06;;;19.60
13219;BMP180;6674;49.152;11.918;2023-07-24T04:55:28;95300.38;;;19.60
13219;BMP180;6674;49.152;11.918;2023-07-24T04:57:54;95293.00;;;19.62
13219;BMP180;6674;49.152;11.918;2023-07-24T05:00:22;95299.56;;;19.59
13219;BMP180;6674;49.152;11.918;2023-07-24T05:02:49;95298.59;;;19.55
13219;BMP180;6674;49.152;11.918;2023-07-24T05:05:15;95302.84;;;19.51
13219;BMP180;6674;49.152;11.918;2023-07-24T05:07:42;95299.16;;;19.52
13219;BMP180;6674;49.152;11.918;2023-07-24T05:10:10;95295.59;;;19.48
13219;BMP180;6674;49.152;11.918;2023-07-24T05:12:40;95285.53;;;19.55
13219;BMP180;6674;49.152;11.918;2023-07-24T05:15:08;95276.31;;;19.58
13219;BMP180;6674;49.152;11.918;2023-07-24T05:17:35;95272.44;;;19.55
13219;BMP180;6674;49.152;11.918;2023-07-24T05:20:01;95279.22;;;19.56
13219;BMP180;6674;49.152;11.918;2023-07-24T05:22:28;95274.06;;;19.51
13219;BMP180;6674;49.152;11.918;2023-07-24T05:24:55;95270.88;;;19.54
13219;BMP180;6674;49.152;11.918;2023-07-24T05:27:24;95276.69;;;19.51
13219;BMP180;6674;49.152;11.918;2023-07-24T05:29:51;95282.06;;;19.42
13219;BMP180;6674;49.152;11.918;2023-07-24T05:32:17;95284.41;;;19.43
13219;BMP180;6674;49.152;11.918;2023-07-24T05:34:44;95268.91;;;19.46
13219;BMP180;6674;49.152;11.918;2023-07-24T05:37:11;95275.25;;;19.59
13219;BMP180;6674;49.152;11.918;2023-07-24T05:39:40;95262.38;;;19.62
13219;BMP180;6674;49.152;11.918;2023-07-24T05:42:08;95258.63;;;19.68
13219;BMP180;6674;49.152;11.918;2023-07-24T05:44:38;95259.03;;;19.75
13219;BMP180;6674;49.152;11.918;2023-07-24T05:47:06;95253.53;;;19.90
13219;BMP180;6674;49.152;11.918;2023-07-24T05:49:35;95245.03;;;19.98
13219;BMP180;6674;49.152;11.918;2023-07-24T05:52:03;95251.22;;;20.02
13219;BMP180;6674;49.152;11.918;2023-07-24T05:54:31;95255.88;;;20.05
13219;BMP180;6674;49.152;11.918;2023-07-24T05:57:01;95252.88;;;20.11
13219;BMP180;6674;49.152;11.918;2023-07-24T05:59:29;95254.91;;;20.28
13219;BMP180;6674;49.152;11.918;2023-07-24T06:01:57;95257.16;;;20.34
13219;BMP180;6674;49.152;11.918;2023-07-24T06:04:24;95252.59;;;20.39
13219;BMP180;6674;49.152;11.918;2023-07-24T06:06:52;95250.16;;;20.56
13219;BMP180;6674;49.152;11.918;2023-07-24T06:09:18;95256.84;;;20.62
13219;BMP180;6674;49.152;11.918;2023-07-24T06:11:45;95247.91;;;20.63
13219;BMP180;6674;49.152;11.918;2023-07-24T06:14:12;95249.88;;;20.71
13219;BMP180;6674;49.152;11.918;2023-07-24T06:16:39;95261.69;;;20.82
13219;BMP180;6674;49.152;11.918;2023-07-24T06:19:07;95251.56;;;20.89
13219;BMP180;6674;49.152;11.918;2023-07-24T06:21:34;95251.34;;;20.99
13219;BMP180;6674;49.152;11.918;2023-07-24T06:24:00;95241.72;;;21.08
13219;BMP180;6674;49.152;11.918;2023-07-24T06:26:27;95239.44;;;21.15
13219;BMP180;6674;49.152;11.918;2023-07-24T06:28:54;95252.31;;;21.24
13219;BMP180;6674;49.152;11.918;2023-07-24T06:31:21;95245.78;;;21.35
13219;BMP180;6674;49.152;11.918;2023-07-24T06:33:48;95239.44;;;21.36
13219;BMP180;6674;49.152;11.918;2023-07-24T06:36:16;95239.31;;;21.41
13219;BMP180;6674;49.152;11.918;2023-07-24T06:38:43;95241.63;;;21.56
13219;BMP180;6674;49.152;11.918;2023-07-24T06:41:12;95241.53;;;21.69
13219;BMP180;6674;49.152;11.918;2023-07-24T06:43:38;95256.75;;;21.81
13219;BMP180;6674;49.152;11.918;2023-07-24T06:46:05;95247.22;;;21.93
13219;BMP180;6674;49.152;11.918;2023-07-24T06:48:32;95243.84;;;22.01
13219;BMP180;6674;49.152;11.918;2023-07-24T06:50:59;95253.03;;;22.12
13219;BMP180;6674;49.152;11.918;2023-07-24T06:53:27;95256.00;;;22.19
13219;BMP180;6674;49.152;11.918;2023-07-24T06:55:54;95244.59;;;22.23
13219;BMP180;6674;49.152;11.918;2023-07-24T06:58:21;95231.78;;;22.30
13219;BMP180;6674;49.152;11.918;2023-07-24T07:00:47;95233.66;;;22.38
13219;BMP180;6674;49.152;11.918;2023-07-24T07:03:14;95221.94;;;22.44
13219;BMP180;6674;49.152;11.918;2023-07-24T07:05:41;95228.59;;;22.50
13219;BMP180;6674;49.152;11.918;2023-07-24T07:08:08;95230.16;;;22.51
13219;BMP180;6674;49.152;11.918;2023-07-24T07:10:36;95230.59;;;22.53
13219;BMP180;6674;49.152;11.918;2023-07-24T07:13:03;95222.44;;;22.63
13219;BMP180;6674;49.152;11.918;2023-07-24T07:15:29;95222.13;;;22.73
13219;BMP180;6674;49.152;11.918;2023-07-24T07:17:56;95227.56;;;22.85
13219;BMP180;6674;49.152;11.918;2023-07-24T07:20:23;95238.13;;;23.01
13219;BMP180;6674;49.152;11.918;2023-07-24T07:22:50;95231.34;;;23.09
13219;BMP180;6674;49.152;11.918;2023-07-24T07:25:17;95233.94;;;23.17
13219;BMP180;6674;49.152;11.918;2023-07-24T07:27:45;95230.56;;;23.25
13219;BMP180;6674;49.152;11.918;2023-07-24T07:30:11;95233.63;;;23.27
13219;BMP180;6674;49.152;11.918;2023-07-24T07:32:38;95245.72;;;23.37
13219;BMP180;6674;49.152;11.918;2023-07-24T07:35:06;95250.50;;;23.43
13219;BMP180;6674;49.152;11.918;2023-07-24T07:37:33;95251.41;;;23.47
13219;BMP180;6674;49.152;11.918;2023-07-24T07:39:59;95251.41;;;23.47
13219;BMP180;6674;49.152;11.918;2023-07-24T07:42:26;95243.81;;;23.54
13219;BMP180;6674;49.152;11.918;2023-07-24T07:44:54;95252.34;;;23.59
13219;BMP180;6674;49.152;11.918;2023-07-24T07:47:21;95268.16;;;23.68
13219;BMP180;6674;49.152;11.918;2023-07-24T07:49:47;95259.00;;;23.65
13219;BMP180;6674;49.152;11.918;2023-07-24T07:52:14;95274.66;;;23.62
13219;BMP180;6674;49.152;11.918;2023-07-24T07:54:46;95303.44;;;23.50
13219;BMP180;6674;49.152;11.918;2023-07-24T07:57:13;95338.09;;;23.18
13219;BMP180;6674;49.152;11.918;2023-07-24T07:59:39;95333.13;;;23.00
13219;BMP180;6674;49.152;11.918;2023-07-24T08:02:08;95343.91;;;22.90
13219;BMP180;6674;49.152;11.918;2023-07-24T08:04:35;95327.94;;;22.70
13219;BMP180;6674;49.152;11.918;2023-07-24T08:07:02;95334.81;;;22.49
13219;BMP180;6674;49.152;11.918;2023-07-24T08:09:29;95335.09;;;22.17
13219;BMP180;6674;49.152;11.918;2023-07-24T08:11:55;95342.25;;;21.95
13219;BMP180;6674;49.152;11.918;2023-07-24T08:14:22;95332.88;;;21.81
13219;BMP180;6674;49.152;11.918;2023-07-24T08:16:49;95329.03;;;21.87
13219;BMP180;6674;49.152;11.918;2023-07-24T08:19:17;95323.44;;;21.80
13219;BMP180;6674;49.152;11.918;2023-07-24T08:21:44;95333.75;;;21.76
13219;BMP180;6674;49.152;11.918;2023-07-24T08:24:10;95337.63;;;21.57
13219;BMP180;6674;49.152;11.918;2023-07-24T08:26:37;95342.13;;;21.57
13219;BMP180;6674;49.152;11.918;2023-07-24T08:29:05;95337.19;;;21.42
13219;BMP180;6674;49.152;11.918;2023-07-24T08:31:31;95338.47;;;21.44
13219;BMP180;6674;49.152;11.918;2023-07-24T08:33:58;95356.91;;;21.39
13219;BMP180;6674;49.152;11.918;2023-07-24T08:36:26;95346.53;;;21.34
13219;BMP180;6674;49.152;11.918;2023-07-24T08:38:54;95346.38;;;21.18
13219;BMP180;6674;49.152;11.918;2023-07-24T08:41:21;95344.06;;;21.16
13219;BMP180;6674;49.152;11.918;2023-07-24T08:43:48;95330.88;;;21.08
13219;BMP180;6674;49.152;11.918;2023-07-24T08:46:18;95340.84;;;21.06
13219;BMP180;6674;49.152;11.918;2023-07-24T08:48:44;95352.44;;;21.05
13219;BMP180;6674;49.152;11.918;2023-07-24T08:51:12;95353.69;;;20.94
13219;BMP180;6674;49.152;11.918;2023-07-24T08:53:42;95327.97;;;20.96
13219;BMP180;6674;49.152;11.918;2023-07-24T08:56:10;95325.84;;;20.98
13219;BMP180;6674;49.152;11.918;2023-07-24T08:58:37;95320.88;;;20.96
13219;BMP180;6674;49.152;11.918;2023-07-24T09:01:05;95310.09;;;20.98
13219;BMP180;6674;49.152;11.918;2023-07-24T09:03:32;95315.25;;;21.03
13219;BMP180;6674;49.152;11.918;2023-07-24T09:06:00;95315.25;;;21.03
13219;BMP180;6674;49.152;11.918;2023-07-24T09:08:30;95318.94;;;21.02
13219;BMP180;6674;49.152;11.918;2023-07-24T09:10:58;95314.44;;;21.02
13219;BMP180;6674;49.152;11.918;2023-07-24T09:13:26;95305.34;;;21.00
13219;BMP180;6674;49.152;11.918;2023-07-24T09:15:53;95302.03;;;21.08
13219;BMP180;6674;49.152;11.918;2023-07-24T09:18:21;95295.25;;;20.93
13219;BMP180;6674;49.152;11.918;2023-07-24T09:20:48;95286.22;;;20.86
13219;BMP180;6674;49.152;11.918;2023-07-24T09:23:15;95288.84;;;20.86
13219;BMP180;6674;49.152;11.918;2023-07-24T09:25:43;95294.09;;;20.86
13219;BMP180;6674;49.152;11.918;2023-07-24T09:28:12;95287.22;;;20.90
13219;BMP180;6674;49.152;11.918;2023-07-24T09:30:39;95281.38;;;20.93
13219;BMP180;6674;49.152;11.918;2023-07-24T09:33:06;95278.13;;;21.09
13219;BMP180;6674;49.152;11.918;2023-07-24T09:35:34;95284.97;;;21.19
13219;BMP180;6674;49.152;11.918;2023-07-24T09:38:02;95277.00;;;21.23
13219;BMP180;6674;49.152;11.918;2023-07-24T09:40:37;95268.09;;;21.46
13219;BMP180;6674;49.152;11.918;2023-07-24T09:43:15;95256.03;;;21.67
13219;BMP180;6674;49.152;11.918;2023-07-24T09:45:43;95258.47;;;21.85
13219;BMP180;6674;49.152;11.918;2023-07-24T09:48:12;95249.66;;;21.90
13219;BMP180;6674;49.152;11.918;2023-07-24T09:50:40;95235.22;;;22.01
13219;BMP180;6674;49.152;11.918;2023-07-24T09:53:11;95235.06;;;22.06
13219;BMP180;6674;49.152;11.918;2023-07-24T09:55:43;95223.28;;;22.25
13219;BMP180;6674;49.152;11.918;2023-07-24T09:58:15;95214.06;;;22.52
13219;BMP180;6674;49.152;11.918;2023-07-24T10:00:43;95218.13;;;22.84
13219;BMP180;6674;49.152;11.918;2023-07-24T10:03:12;95205.94;;;23.04
13219;BMP180;6674;49.152;11.918;2023-07-24T10:05:39;95195.38;;;23.30
13219;BMP180;6674;49.152;11.918;2023-07-24T10:08:06;95190.00;;;23.18
13219;BMP180;6674;49.152;11.918;2023-07-24T10:10:34;95196.94;;;23.39
13219;BMP180;6674;49.152;11.918;2023-07-24T10:13:01;95193.97;;;23.40
13219;BMP180;6674;49.152;11.918;2023-07-24T10:15:29;95185.03;;;23.33
13219;BMP180;6674;49.152;11.918;2023-07-24T10:18:02;95199.88;;;23.46
13219;BMP180;6674;49.152;11.918;2023-07-24T10:20:33;95191.00;;;23.59
13219;BMP180;6674;49.152;11.918;2023-07-24T10:23:01;95192.25;;;23.70
13219;BMP180;6674;49.152;11.918;2023-07-24T10:25:31;95183.19;;;23.87
13219;BMP180;6674;49.152;11.918;2023-07-24T10:28:03;95169.41;;;23.90
13219;BMP180;6674;49.152;11.918;2023-07-24T10:30:34;95178.56;;;23.84
13219;BMP180;6674;49.152;11.918;2023-07-24T10:33:08;95171.22;;;23.98
13219;BMP180;6674;49.152;11.918;2023-07-24T10:35:38;95175.97;;;24.13
13219;BMP180;6674;49.152;11.918;2023-07-24T10:38:07;95180.59;;;24.16
13219;BMP180;6674;49.152;11.918;2023-07-24T10:40:34;95182.91;;;24.55
13219;BMP180;6674;49.152;11.918;2023-07-24T10:43:05;95181.63;;;25.01
13219;BMP180;6674;49.152;11.918;2023-07-24T10:45:46;95183.66;;;25.16
13219;BMP180;6674;49.152;11.918;2023-07-24T10:48:14;95183.31;;;25.38
13219;BMP180;6674;49.152;11.918;2023-07-24T10:50:44;95181.34;;;25.35
13219;BMP180;6674;49.152;11.918;2023-07-24T10:53:14;95178.16;;;25.41
13219;BMP180;6674;49.152;11.918;2023-07-24T10:55:45;95177.03;;;25.62
13219;BMP180;6674;49.152;11.918;2023-07-24T10:58:13;95181.03;;;25.80
13219;BMP180;6674;49.152;11.918;2023-07-24T11:00:41;95175.75;;;25.92
13219;BMP180;6674;49.152;11.918;2023-07-24T11:03:10;95172.69;;;25.90
13219;BMP180;6674;49.152;11.918;2023-07-24T11:05:39;95188.75;;;25.85
13219;BMP180;6674;49.152;11.918;2023-07-24T11:08:09;95179.81;;;25.78
13219;BMP180;6674;49.152;11.918;2023-07-24T11:10:44;95180.22;;;25.68
13219;BMP180;6674;49.152;11.918;2023-07-24T11:13:13;95164.91;;;25.61
13219;BMP180;6674;49.152;11.918;2023-07-24T11:15:45;95170.47;;;25.48
13219;BMP180;6674;49.152;11.918;2023-07-24T11:18:12;95157.50;;;25.55
13219;BMP180;6674;49.152;11.918;2023-07-24T11:20:44;95159.38;;;25.55
13219;BMP180;6674;49.152;11.918;2023-07-24T11:23:14;95155.66;;;25.56
13219;BMP180;6674;49.152;11.918;2023-07-24T11:25:41;95153.88;;;25.59
13219;BMP180;6674;49.152;11.918;2023-07-24T11:28:10;95155.97;;;25.54
13219;BMP180;6674;49.152;11.918;2023-07-24T11:30:37;95155.41;;;25.49
13219;BMP180;6674;49.152;11.918;2023-07-24T11:33:09;95165.19;;;25.48
13219;BMP180;6674;49.152;11.918;2023-07-24T11:35:40;95174.28;;;25.39
13219;BMP180;6674;49.152;11.918;2023-07-24T11:38:08;95173.38;;;25.23
13219;BMP180;6674;49.152;11.918;2023-07-24T11:40:38;95168.50;;;25.13
13219;BMP180;6674;49.152;11.918;2023-07-24T11:43:15;95168.22;;;25.06
13219;BMP180;6674;49.152;11.918;2023-07-24T11:45:43;95188.34;;;24.99
13219;BMP180;6674;49.152;11.918;2023-07-24T11:48:13;95179.81;;;24.73
13219;BMP180;6674;49.152;11.918;2023-07-24T11:50:46;95174.81;;;24.51
13219;BMP180;6674;49.152;11.918;2023-07-24T11:53:24;95178.63;;;24.42
13219;BMP180;6674;49.152;11.918;2023-07-24T11:55:53;95197.31;;;24.20
13219;BMP180;6674;49.152;11.918;2023-07-24T11:58:21;95193.97;;;24.11
13219;BMP180;6674;49.152;11.918;2023-07-24T12:00:49;95208.91;;;23.90
13219;BMP180;6674;49.152;11.918;2023-07-24T12:03:20;95215.00;;;23.74
13219;BMP180;6674;49.152;11.918;2023-07-24T12:05:48;95225.69;;;23.61
13219;BMP180;6674;49.152;11.918;2023-07-24T12:08:19;95233.78;;;23.39
13219;BMP180;6674;49.152;11.918;2023-07-24T12:10:49;95245.41;;;23.38
13219;BMP180;6674;49.152;11.918;2023-07-24T12:13:16;95273.88;;;23.28
13219;BMP180;6674;49.152;11.918;2023-07-24T12:15:43;95272.31;;;23.01
13219;BMP180;6674;49.152;11.918;2023-07-24T12:18:10;95269.88;;;22.58
13219;BMP180;6674;49.152;11.918;2023-07-24T12:20:38;95247.47;;;22.13
13219;BMP180;6674;49.152;11.918;2023-07-24T12:23:06;95227.06;;;21.80
13219;BMP180;6674;49.152;11.918;2023-07-24T12:25:33;95228.97;;;21.88
13219;BMP180;6674;49.152;11.918;2023-07-24T12:28:00;95206.50;;;22.12
13219;BMP180;6674;49.152;11.918;2023-07-24T12:30:28;95191.59;;;22.21
13219;BMP180;6674;49.152;11.918;2023-07-24T12:32:55;95197.50;;;21.97
13219;BMP180;6674;49.152;11.918;2023-07-24T12:35:22;95204.53;;;21.79
13219;BMP180;6674;49.152;11.918;2023-07-24T12:37:51;95224.63;;;21.84
13219;BMP180;6674;49.152;11.918;2023-07-24T12:40:18;95241.97;;;21.63
13219;BMP180;6674;49.152;11.918;2023-07-24T12:42:45;95244.78;;;21.45
13219;BMP180;6674;49.152;11.918;2023-07-24T12:45:11;95265.84;;;21.18
13219;BMP180;6674;49.152;11.918;2023-07-24T12:47:38;95279.53;;;20.93
13219;BMP180;6674;49.152;11.918;2023-07-24T12:50:06;95262.09;;;20.76
13219;BMP180;6674;49.152;11.918;2023-07-24T12:52:32;95265.94;;;20.65
13219;BMP180;6674;49.152;11.918;2023-07-24T12:55:01;95280.34;;;20.40
13219;BMP180;6674;49.152;11.918;2023-07-24T12:57:28;95279.16;;;20.20
13219;BMP180;6674;49.152;11.918;2023-07-24T12:59:54;95273.16;;;20.06
13219;BMP180;6674;49.152;11.918;2023-07-24T13:02:21;95267.13;;;19.92
13219;BMP180;6674;49.152;11.918;2023-07-24T13:04:48;95266.31;;;19.78
13219;BMP180;6674;49.152;11.918;2023-07-24T13:07:15;95259.13;;;19.84
13219;BMP180;6674;49.152;11.918;2023-07-24T13:09:41;95259.09;;;19.70
13219;BMP180;6674;49.152;11.918;2023-07-24T13:12:10;95261.34;;;19.63
13219;BMP180;6674;49.152;11.918;2023-07-24T13:14:36;95261.22;;;19.55
13219;BMP180;6674;49.152;11.918;2023-07-24T13:17:03;95258.47;;;19.46
13219;BMP180;6674;49.152;11.918;2023-07-24T13:19:30;95256.09;;;19.32
13219;BMP180;6674;49.152;11.918;2023-07-24T13:21:57;95233.28;;;19.37
13219;BMP180;6674;49.152;11.918;2023-07-24T13:24:24;95212.75;;;19.44
13219;BMP180;6674;49.152;11.918;2023-07-24T13:26:51;95185.59;;;19.40
13219;BMP180;6674;49.152;11.918;2023-07-24T13:29:19;95182.53;;;19.51
13219;BMP180;6674;49.152;11.918;2023-07-24T13:31:46;95156.88;;;19.53
13219;BMP180;6674;49.152;11.918;2023-07-24T13:34:12;95146.13;;;19.68
13219;BMP180;6674;49.152;11.918;2023-07-24T13:36:39;95136.41;;;19.82
13219;BMP180;6674;49.152;11.918;2023-07-24T13:39:06;95132.75;;;19.96
13219;BMP180;6674;49.152;11.918;2023-07-24T13:41:33;95131.78;;;20.06
13219;BMP180;6674;49.152;11.918;2023-07-24T13:44:01;95129.16;;;20.06
13219;BMP180;6674;49.152;11.918;2023-07-24T13:46:29;95102.81;;;20.02
13219;BMP180;6674;49.152;11.918;2023-07-24T13:48:56;95086.22;;;20.07
13219;BMP180;6674;49.152;11.918;2023-07-24T13:51:23;95074.75;;;20.16
13219;BMP180;6674;49.152;11.918;2023-07-24T13:53:49;95065.81;;;20.17
13219;BMP180;6674;49.152;11.918;2023-07-24T13:56:17;95068.81;;;20.24
13219;BMP180;6674;49.152;11.918;2023-07-24T13:58:45;95064.13;;;20.34
13219;BMP180;6674;49.152;11.918;2023-07-24T14:01:11;95075.50;;;20.52
13219;BMP180;6674;49.152;11.918;2023-07-24T14:03:40;95072.47;;;20.58
13219;BMP180;6674;49.152;11.918;2023-07-24T14:06:06;95067.69;;;20.60
13219;BMP180;6674;49.152;11.918;2023-07-24T14:08:33;95073.06;;;20.69
13219;BMP180;6674;49.152;11.918;2023-07-24T14:11:01;95063.69;;;20.76